createdAt,value
2023-01-30T00:01:01.407Z,0.32
2023-01-30T00:03:28.060Z,0.26
2023-01-30T00:05:54.487Z,0.07
2023-01-30T00:08:21.456Z,0.09
2023-01-30T00:10:48.159Z,0.12
2023-01-30T00:13:15.588Z,0.14
2023-01-30T00:15:42.790Z,0.23
2023-01-30T00:18:09.815Z,0.20
2023-01-30T00:20:36.904Z,0.19
2023-01-30T00:23:04.673Z,0.15
2023-01-30T00:25:31.630Z,0.15
2023-01-30T00:28:01.688Z,0.12
2023-01-30T00:30:28.757Z,0.14
2023-01-30T00:32:59.216Z,0.11
2023-01-30T00:35:28.431Z,0.02
2023-01-30T00:37:57.176Z,0.08
2023-01-30T00:40:28.081Z,0.17
2023-01-30T00:43:14.014Z,0.12
2023-01-30T00:46:01.763Z,-0.02
2023-01-30T00:48:28.374Z,-0.12
2023-01-30T00:50:54.788Z,-0.16
2023-01-30T00:53:21.267Z,-0.19
2023-01-30T00:55:47.762Z,-0.24
2023-01-30T00:58:14.213Z,-0.20
2023-01-30T01:00:40.735Z,-0.17
2023-01-30T01:03:07.827Z,-0.10
2023-01-30T01:05:34.791Z,-0.34
2023-01-30T01:08:01.816Z,-0.37
2023-01-30T01:10:28.635Z,-0.33
2023-01-30T01:12:55.337Z,-0.22
2023-01-30T01:15:23.512Z,-0.11
2023-01-30T01:17:50.316Z,-0.06
2023-01-30T01:20:18.357Z,-0.06
2023-01-30T01:22:45.052Z,-0.07
2023-01-30T01:25:11.685Z,-0.04
2023-01-30T01:27:38.624Z,0.12
2023-01-30T01:30:06.596Z,0.23
2023-01-30T01:32:33.033Z,0.18
2023-01-30T01:34:59.510Z,0.13
2023-01-30T01:37:26.142Z,0.06
2023-01-30T01:40:11.266Z,-0.01
2023-01-30T01:42:38.901Z,0.13
2023-01-30T01:45:18.023Z,0.09
2023-01-30T01:48:16.939Z,0.03
2023-01-30T01:50:49.232Z,-0.03
2023-01-30T01:53:18.891Z,0.03
2023-01-30T01:55:49.928Z,0.03
2023-01-30T01:58:41.357Z,0.05
2023-01-30T02:01:08.100Z,0.11
2023-01-30T02:03:37.954Z,0.11
2023-01-30T02:06:04.756Z,0.07
2023-01-30T02:08:38.896Z,0.03
2023-01-30T02:11:08.765Z,-0.04
2023-01-30T02:13:35.968Z,-0.13
2023-01-30T02:16:04.201Z,-0.09
2023-01-30T02:18:33.985Z,-0.03
2023-01-30T02:21:22.041Z,-0.12
2023-01-30T02:24:17.697Z,-0.33
2023-01-30T02:26:57.718Z,-0.31
2023-01-30T02:30:12.190Z,-0.24
2023-01-30T02:32:41.352Z,-0.19
2023-01-30T02:35:37.036Z,-0.19
2023-01-30T02:38:24.877Z,-0.29
2023-01-30T02:40:57.484Z,-0.33
2023-01-30T02:43:44.524Z,-0.36
2023-01-30T02:46:52.766Z,-0.42
2023-01-30T02:49:28.322Z,-0.47
2023-01-30T02:51:56.576Z,-0.56
2023-01-30T02:54:23.065Z,-0.57
2023-01-30T02:56:57.266Z,-0.65
2023-01-30T02:59:37.264Z,-0.65
2023-01-30T03:02:28.006Z,-0.68
2023-01-30T03:05:10.288Z,-0.54
2023-01-30T03:07:50.401Z,-0.60
2023-01-30T03:10:38.151Z,-0.72
2023-01-30T03:13:21.001Z,-0.73
2023-01-30T03:15:59.544Z,-0.71
2023-01-30T03:18:28.428Z,-0.67
2023-01-30T03:20:55.021Z,-0.61
2023-01-30T03:23:24.243Z,-0.54
2023-01-30T03:25:51.121Z,-0.46
2023-01-30T03:28:21.253Z,-0.40
2023-01-30T03:30:47.825Z,-0.33
2023-01-30T03:33:14.290Z,-0.33
2023-01-30T03:35:41.311Z,-0.38
2023-01-30T03:38:08.237Z,-0.34
2023-01-30T03:40:34.780Z,-0.35
2023-01-30T03:43:01.191Z,-0.38
2023-01-30T03:45:27.603Z,-0.43
2023-01-30T03:47:54.117Z,-0.41
2023-01-30T03:50:20.579Z,-0.44
2023-01-30T03:52:47.004Z,-0.46
2023-01-30T03:55:13.526Z,-0.44
2023-01-30T03:57:39.956Z,-0.44
2023-01-30T04:00:06.993Z,-0.53
2023-01-30T04:02:33.431Z,-0.69
2023-01-30T04:04:59.945Z,-0.65
2023-01-30T04:07:29.582Z,-0.47
2023-01-30T04:09:55.987Z,-0.46
2023-01-30T04:12:22.377Z,-0.51
2023-01-30T04:14:48.780Z,-0.54
2023-01-30T04:17:15.259Z,-0.58
2023-01-30T04:19:41.695Z,-0.62
2023-01-30T04:22:08.105Z,-0.57
2023-01-30T04:24:34.489Z,-0.61
2023-01-30T04:27:00.951Z,-0.67
2023-01-30T04:29:27.370Z,-0.73
2023-01-30T04:31:53.808Z,-0.77
2023-01-30T04:34:20.286Z,-0.78
2023-01-30T04:36:46.724Z,-0.84
2023-01-30T04:39:13.107Z,-0.84
2023-01-30T04:41:39.524Z,-0.87
2023-01-30T04:44:07.105Z,-0.92
2023-01-30T04:46:34.435Z,-0.97
2023-01-30T04:49:00.843Z,-1.00
2023-01-30T04:51:27.228Z,-0.98
2023-01-30T04:53:53.662Z,-0.98
2023-01-30T04:56:20.133Z,-0.92
2023-01-30T04:58:46.530Z,-0.85
2023-01-30T05:01:17.143Z,-0.79
2023-01-30T05:03:43.589Z,-0.77
2023-01-30T05:06:10.002Z,-0.82
2023-01-30T05:08:36.419Z,-0.87
2023-01-30T05:11:02.831Z,-0.80
2023-01-30T05:13:29.234Z,-0.90
2023-01-30T05:15:55.809Z,-0.93
2023-01-30T05:18:22.198Z,-0.88
2023-01-30T05:20:48.590Z,-0.85
2023-01-30T05:23:14.973Z,-0.87
2023-01-30T05:25:41.474Z,-0.91
2023-01-30T05:28:07.882Z,-0.82
2023-01-30T05:30:34.422Z,-0.77
2023-01-30T05:33:00.824Z,-0.77
2023-01-30T05:35:27.211Z,-0.73
2023-01-30T05:37:53.647Z,-0.79
2023-01-30T05:40:20.036Z,-0.78
2023-01-30T05:42:46.424Z,-0.71
2023-01-30T05:45:12.834Z,-0.68
2023-01-30T05:47:39.247Z,-0.75
2023-01-30T05:50:05.914Z,-0.81
2023-01-30T05:52:32.324Z,-0.85
2023-01-30T05:54:58.732Z,-0.85
2023-01-30T05:57:25.154Z,-0.85
2023-01-30T05:59:51.582Z,-0.79
2023-01-30T06:02:17.978Z,-0.82
2023-01-30T06:04:44.373Z,-0.85
2023-01-30T06:07:10.756Z,-0.92
2023-01-30T06:09:37.184Z,-0.93
2023-01-30T06:12:03.742Z,-0.85
2023-01-30T06:14:30.145Z,-0.90
2023-01-30T06:16:56.612Z,-0.85
2023-01-30T06:19:23.200Z,-0.80
2023-01-30T06:21:49.625Z,-0.84
2023-01-30T06:24:16.017Z,-0.82
2023-01-30T06:26:42.457Z,-0.75
2023-01-30T06:29:08.901Z,-0.74
2023-01-30T06:31:35.398Z,-0.80
2023-01-30T06:34:01.807Z,-0.93
2023-01-30T06:36:28.192Z,-1.06
2023-01-30T06:38:54.621Z,-1.10
2023-01-30T06:41:21.445Z,-1.10
2023-01-30T06:43:47.954Z,-1.17
2023-01-30T06:46:14.613Z,-1.17
2023-01-30T06:48:41.092Z,-1.11
2023-01-30T06:51:07.506Z,-0.99
2023-01-30T06:53:33.915Z,-1.00
2023-01-30T06:56:01.731Z,-1.08
2023-01-30T06:58:28.368Z,-1.15
2023-01-30T07:00:54.898Z,-1.09
2023-01-30T07:03:21.331Z,-0.94
2023-01-30T07:05:48.362Z,-0.85
2023-01-30T07:08:30.558Z,-0.86
2023-01-30T07:10:56.986Z,-0.87
2023-01-30T07:13:23.380Z,-0.86
2023-01-30T07:15:50.539Z,-0.89
2023-01-30T07:18:16.972Z,-0.85
2023-01-30T07:20:47.782Z,-0.79
2023-01-30T07:23:14.190Z,-0.70
2023-01-30T07:25:40.634Z,-0.63
2023-01-30T07:28:07.143Z,-0.59
2023-01-30T07:30:36.083Z,-0.59
2023-01-30T07:33:04.976Z,-0.56
2023-01-30T07:35:34.290Z,-0.36
2023-01-30T07:38:00.724Z,-0.33
2023-01-30T07:40:27.681Z,-0.40
2023-01-30T07:43:02.689Z,-0.37
2023-01-30T07:45:35.260Z,-0.26
2023-01-30T07:48:01.668Z,-0.19
2023-01-30T07:50:28.263Z,-0.20
2023-01-30T07:52:54.998Z,-0.15
2023-01-30T07:55:24.811Z,-0.08
2023-01-30T07:57:51.232Z,-0.15
2023-01-30T08:00:18.664Z,-0.11
2023-01-30T08:02:45.315Z,-0.09
2023-01-30T08:05:12.170Z,-0.06
2023-01-30T08:07:44.581Z,0.04
2023-01-30T08:10:12.163Z,0.09
2023-01-30T08:12:42.467Z,0.15
2023-01-30T08:15:10.296Z,0.16
2023-01-30T08:17:37.020Z,0.12
2023-01-30T08:20:04.571Z,0.23
2023-01-30T08:22:31.121Z,0.36
2023-01-30T08:24:57.541Z,0.40
2023-01-30T08:27:23.963Z,0.30
2023-01-30T08:29:50.516Z,0.14
2023-01-30T08:32:16.945Z,0.19
2023-01-30T08:34:52.153Z,0.39
2023-01-30T08:37:18.605Z,0.46
2023-01-30T08:39:45.082Z,0.45
2023-01-30T08:42:11.566Z,0.41
2023-01-30T08:44:38.045Z,0.49
2023-01-30T08:47:04.479Z,0.60
2023-01-30T08:49:40.746Z,0.62
2023-01-30T08:52:07.230Z,0.73
2023-01-30T08:54:33.751Z,0.86
2023-01-30T08:57:00.184Z,0.93
2023-01-30T08:59:26.630Z,0.95
2023-01-30T09:01:53.080Z,1.03
2023-01-30T09:04:19.510Z,1.09
2023-01-30T09:06:45.913Z,1.14
2023-01-30T09:09:12.368Z,1.21
2023-01-30T09:11:38.843Z,1.27
2023-01-30T09:14:05.284Z,1.29
2023-01-30T09:16:31.897Z,1.35
2023-01-30T09:18:58.316Z,1.39
2023-01-30T09:21:25.189Z,1.43
2023-01-30T09:23:51.629Z,1.44
2023-01-30T09:26:18.198Z,1.55
2023-01-30T09:28:44.677Z,1.61
2023-01-30T09:31:11.220Z,1.57
2023-01-30T09:33:37.765Z,1.56
2023-01-30T09:36:04.555Z,1.56
2023-01-30T09:38:31.191Z,1.64
2023-01-30T09:41:22.074Z,1.66
2023-01-30T09:44:03.131Z,1.62
2023-01-30T09:47:03.811Z,1.52
2023-01-30T09:49:50.674Z,1.52
2023-01-30T09:52:31.377Z,1.56
2023-01-30T09:55:19.738Z,1.49
2023-01-30T09:57:48.962Z,1.49
2023-01-30T10:00:49.106Z,1.55
2023-01-30T10:03:24.226Z,1.49
2023-01-30T10:05:59.310Z,1.53
2023-01-30T10:08:52.035Z,1.62
2023-01-30T10:11:30.907Z,1.66
2023-01-30T10:14:20.914Z,1.73
2023-01-30T10:16:58.747Z,1.89
2023-01-30T10:19:53.345Z,2.02
2023-01-30T10:22:47.156Z,2.05
2023-01-30T10:25:38.510Z,2.16
2023-01-30T10:28:36.776Z,2.19
2023-01-30T10:31:19.234Z,2.27
2023-01-30T10:34:07.625Z,2.46
2023-01-30T10:36:41.076Z,2.67
2023-01-30T10:39:21.386Z,2.75
2023-01-30T10:42:10.215Z,2.86
2023-01-30T10:44:39.150Z,2.97
2023-01-30T10:47:47.150Z,3.13
2023-01-30T10:50:24.411Z,3.34
2023-01-30T10:53:08.185Z,3.48
2023-01-30T10:55:46.881Z,3.59
2023-01-30T10:58:17.738Z,3.68
2023-01-30T11:00:56.059Z,3.71
2023-01-30T11:03:47.957Z,3.79
2023-01-30T11:06:18.729Z,3.92
2023-01-30T11:08:45.954Z,4.04
2023-01-30T11:11:26.705Z,4.16
2023-01-30T11:14:10.480Z,4.25
2023-01-30T11:16:53.868Z,4.16
2023-01-30T11:19:24.262Z,4.26
2023-01-30T11:21:53.581Z,4.32
2023-01-30T11:24:23.452Z,4.36
2023-01-30T11:27:12.408Z,4.42
2023-01-30T11:29:39.593Z,4.50
2023-01-30T11:32:19.576Z,4.56
2023-01-30T11:35:24.360Z,4.57
2023-01-30T11:37:53.308Z,4.58
2023-01-30T11:40:25.619Z,4.61
2023-01-30T11:43:10.487Z,4.62
2023-01-30T11:45:40.753Z,4.58
2023-01-30T11:48:31.301Z,4.68
2023-01-30T11:51:06.135Z,4.79
2023-01-30T11:53:40.311Z,4.80
2023-01-30T11:56:17.282Z,4.86
2023-01-30T11:58:47.992Z,5.01
2023-01-30T12:01:16.151Z,5.07
2023-01-30T12:03:52.143Z,5.09
2023-01-30T12:06:32.944Z,5.04
2023-01-30T12:09:00.074Z,5.12
2023-01-30T12:11:35.286Z,5.13
2023-01-30T12:14:25.438Z,5.21
2023-01-30T12:17:12.400Z,5.37
2023-01-30T12:20:01.193Z,5.43
2023-01-30T12:22:38.120Z,5.47
2023-01-30T12:25:31.194Z,5.43
2023-01-30T12:28:02.417Z,5.44
2023-01-30T12:30:56.626Z,5.52
2023-01-30T12:33:28.620Z,5.65
2023-01-30T12:36:19.460Z,5.74
2023-01-30T12:39:10.819Z,5.81
2023-01-30T12:41:51.402Z,5.84
2023-01-30T12:44:23.617Z,5.84
2023-01-30T12:47:25.696Z,5.82
2023-01-30T12:50:36.599Z,5.82
2023-01-30T12:53:21.775Z,5.84
2023-01-30T12:56:17.796Z,5.77
2023-01-30T12:58:50.851Z,5.75
2023-01-30T13:01:25.423Z,5.85
2023-01-30T13:04:16.723Z,5.98
2023-01-30T13:07:10.748Z,6.04
2023-01-30T13:09:40.191Z,5.98
2023-01-30T13:12:13.384Z,5.92
2023-01-30T13:14:57.148Z,5.92
2023-01-30T13:17:44.519Z,5.96
2023-01-30T13:20:23.109Z,6.02
2023-01-30T13:23:18.495Z,6.11
2023-01-30T13:26:01.004Z,6.14
2023-01-30T13:28:50.171Z,6.16
2023-01-30T13:31:24.306Z,6.12
2023-01-30T13:34:03.437Z,6.08
2023-01-30T13:36:54.273Z,6.17
2023-01-30T13:39:42.613Z,6.21
2023-01-30T13:42:23.342Z,6.29
2023-01-30T13:44:51.727Z,6.37
2023-01-30T13:47:23.424Z,6.37
2023-01-30T13:50:12.794Z,6.33
2023-01-30T13:52:46.006Z,6.21
2023-01-30T13:55:49.557Z,6.18
2023-01-30T13:58:25.146Z,6.24
2023-01-30T14:00:53.804Z,6.26
2023-01-30T14:03:25.084Z,6.27
2023-01-30T14:05:51.717Z,6.27
2023-01-30T14:08:22.641Z,6.25
2023-01-30T14:10:50.234Z,6.25
2023-01-30T14:13:19.764Z,6.31
2023-01-30T14:16:02.565Z,6.32
2023-01-30T14:18:38.478Z,6.32
2023-01-30T14:21:31.046Z,6.34
2023-01-30T14:24:00.572Z,6.37
2023-01-30T14:26:48.713Z,6.39
2023-01-30T14:29:40.953Z,6.48
2023-01-30T14:32:14.029Z,6.55
2023-01-30T14:34:44.489Z,6.60
2023-01-30T14:37:41.488Z,6.53
2023-01-30T14:40:22.831Z,6.44
2023-01-30T14:43:27.606Z,6.38
2023-01-30T14:46:02.610Z,6.37
2023-01-30T14:48:48.236Z,6.43
2023-01-30T14:51:25.946Z,6.40
2023-01-30T14:53:57.692Z,6.38
2023-01-30T14:57:01.450Z,6.40
2023-01-30T14:59:38.815Z,6.41
2023-01-30T15:02:14.382Z,6.42
2023-01-30T15:04:46.656Z,6.38
2023-01-30T15:07:37.996Z,6.36
2023-01-30T15:10:23.581Z,6.32
2023-01-30T15:13:05.188Z,6.28
2023-01-30T15:15:54.915Z,6.25
2023-01-30T15:18:43.116Z,6.20
2023-01-30T15:21:37.575Z,6.18
2023-01-30T15:24:41.678Z,6.18
2023-01-30T15:27:45.305Z,6.16
2023-01-30T15:30:29.929Z,6.14
2023-01-30T15:33:19.878Z,6.10
2023-01-30T15:35:49.215Z,6.06
2023-01-30T15:38:28.105Z,6.00
2023-01-30T15:40:57.871Z,5.95
2023-01-30T15:43:27.381Z,5.87
2023-01-30T15:46:06.062Z,5.85
2023-01-30T15:48:58.818Z,5.83
2023-01-30T15:51:30.888Z,5.83
2023-01-30T15:53:59.279Z,5.83
2023-01-30T15:56:31.396Z,5.81
2023-01-30T15:59:00.631Z,5.82
2023-01-30T16:01:27.434Z,5.80
2023-01-30T16:03:54.234Z,5.75
2023-01-30T16:06:34.493Z,5.66
2023-01-30T16:09:06.831Z,5.62
2023-01-30T16:11:33.191Z,5.58
2023-01-30T16:14:01.402Z,5.53
2023-01-30T16:16:29.047Z,5.49
2023-01-30T16:18:59.274Z,5.43
2023-01-30T16:21:31.031Z,5.36
2023-01-30T16:24:06.790Z,5.22
2023-01-30T16:26:35.697Z,5.15
2023-01-30T16:29:11.415Z,5.13
2023-01-30T16:31:39.841Z,5.12
2023-01-30T16:34:17.681Z,5.04
2023-01-30T16:36:47.528Z,5.05
2023-01-30T16:39:45.639Z,5.00
2023-01-30T16:42:26.156Z,4.96
2023-01-30T16:45:08.199Z,4.89
2023-01-30T16:47:34.706Z,4.86
2023-01-30T16:50:01.222Z,4.79
2023-01-30T16:52:41.122Z,4.82
2023-01-30T16:55:18.511Z,4.79
2023-01-30T16:57:52.426Z,4.67
2023-01-30T17:00:33.784Z,4.58
2023-01-30T17:03:03.785Z,4.55
2023-01-30T17:05:37.706Z,4.52
2023-01-30T17:08:04.332Z,4.50
2023-01-30T17:10:51.977Z,4.55
2023-01-30T17:13:37.348Z,4.53
2023-01-30T17:16:22.047Z,4.45
2023-01-30T17:18:49.674Z,4.34
2023-01-30T17:21:17.192Z,4.27
2023-01-30T17:23:54.692Z,4.22
2023-01-30T17:26:21.258Z,4.17
2023-01-30T17:28:47.755Z,4.13
2023-01-30T17:31:16.217Z,4.07
2023-01-30T17:33:43.109Z,4.05
2023-01-30T17:36:22.408Z,3.98
2023-01-30T17:38:50.890Z,3.94
2023-01-30T17:41:27.094Z,3.92
2023-01-30T17:43:53.473Z,3.91
2023-01-30T17:46:23.747Z,3.98
2023-01-30T17:48:51.693Z,4.11
2023-01-30T17:51:18.168Z,4.01
2023-01-30T17:53:44.586Z,3.93
2023-01-30T17:56:22.010Z,3.86
2023-01-30T17:58:50.603Z,3.80
2023-01-30T18:01:18.925Z,3.80
2023-01-30T18:03:45.843Z,3.67
2023-01-30T18:06:14.319Z,3.54
2023-01-30T18:08:41.525Z,3.48
2023-01-30T18:11:12.077Z,3.28
2023-01-30T18:13:39.971Z,3.33
2023-01-30T18:16:06.697Z,3.50
2023-01-30T18:18:33.306Z,3.82
2023-01-30T18:20:59.745Z,3.86
2023-01-30T18:23:26.204Z,3.65
2023-01-30T18:25:52.603Z,3.54
2023-01-30T18:28:18.984Z,3.62
2023-01-30T18:30:45.486Z,3.63
2023-01-30T18:33:12.012Z,3.58
2023-01-30T18:35:39.029Z,3.58
2023-01-30T18:38:05.490Z,3.46
2023-01-30T18:40:31.916Z,3.42
2023-01-30T18:42:58.423Z,3.37
2023-01-30T18:45:24.851Z,3.35
2023-01-30T18:47:52.452Z,3.37
2023-01-30T18:50:19.350Z,3.47
2023-01-30T18:52:47.319Z,3.41
2023-01-30T18:55:13.820Z,3.40
2023-01-30T18:57:40.252Z,3.48
2023-01-30T19:00:07.477Z,3.46
2023-01-30T19:02:34.021Z,3.37
2023-01-30T19:05:00.516Z,3.26
2023-01-30T19:07:26.926Z,3.25
2023-01-30T19:09:56.453Z,3.21
2023-01-30T19:12:42.406Z,3.19
2023-01-30T19:15:09.414Z,3.16
2023-01-30T19:17:35.927Z,3.08
2023-01-30T19:20:04.697Z,3.08
2023-01-30T19:22:31.072Z,3.13
2023-01-30T19:24:57.546Z,3.23
2023-01-30T19:27:24.521Z,3.33
2023-01-30T19:29:51.076Z,3.37
2023-01-30T19:32:17.468Z,3.31
2023-01-30T19:34:45.131Z,3.21
2023-01-30T19:37:11.525Z,3.17
2023-01-30T19:39:37.907Z,3.07
2023-01-30T19:42:04.511Z,2.99
2023-01-30T19:44:30.981Z,2.81
2023-01-30T19:46:57.424Z,2.79
2023-01-30T19:49:23.813Z,2.74
2023-01-30T19:51:50.228Z,2.68
2023-01-30T19:54:16.784Z,2.68
2023-01-30T19:56:47.299Z,2.48
2023-01-30T19:59:15.966Z,2.42
2023-01-30T20:01:42.558Z,2.36
2023-01-30T20:04:09.089Z,2.37
2023-01-30T20:06:37.422Z,2.35
2023-01-30T20:09:06.695Z,2.27
2023-01-30T20:11:35.410Z,2.28
2023-01-30T20:14:02.023Z,2.34
2023-01-30T20:16:29.642Z,2.36
2023-01-30T20:18:59.421Z,2.54
2023-01-30T20:21:26.913Z,2.78
2023-01-30T20:23:54.131Z,2.91
2023-01-30T20:26:24.492Z,2.84
2023-01-30T20:28:51.177Z,2.84
2023-01-30T20:31:20.661Z,2.77
2023-01-30T20:33:47.408Z,2.83
2023-01-30T20:36:18.585Z,2.89
2023-01-30T20:38:46.692Z,2.90
2023-01-30T20:41:18.446Z,3.00
2023-01-30T20:43:46.883Z,3.10
2023-01-30T20:46:16.745Z,3.03
2023-01-30T20:48:43.685Z,3.03
2023-01-30T20:51:12.686Z,2.99
2023-01-30T20:53:40.047Z,2.85
2023-01-30T20:56:07.098Z,2.73
2023-01-30T20:58:33.566Z,2.70
2023-01-30T21:01:18.579Z,2.73
2023-01-30T21:03:48.020Z,2.57
2023-01-30T21:06:14.869Z,2.30
2023-01-30T21:09:02.436Z,2.37
2023-01-30T21:11:29.172Z,2.47
2023-01-30T21:13:55.662Z,2.37
2023-01-30T21:16:24.933Z,2.25
2023-01-30T21:18:54.590Z,2.20
2023-01-30T21:21:29.843Z,2.11
2023-01-30T21:23:58.714Z,1.91
2023-01-30T21:26:27.695Z,1.78
2023-01-30T21:28:55.245Z,1.96
2023-01-30T21:31:24.830Z,2.16
2023-01-30T21:33:51.527Z,2.22
2023-01-30T21:36:18.407Z,2.23
2023-01-30T21:39:03.424Z,2.20
2023-01-30T21:41:54.646Z,2.11
2023-01-30T21:44:25.585Z,1.95
2023-01-30T21:46:52.224Z,1.95
2023-01-30T21:49:19.404Z,1.93
2023-01-30T21:51:48.382Z,1.93
2023-01-30T21:54:16.024Z,1.94
2023-01-30T21:56:42.735Z,1.97
2023-01-30T21:59:10.009Z,1.97
2023-01-30T22:01:37.674Z,1.91
2023-01-30T22:04:08.526Z,1.98
2023-01-30T22:06:36.846Z,1.88
2023-01-30T22:09:05.659Z,1.90
2023-01-30T22:11:34.760Z,1.77
2023-01-30T22:14:01.214Z,1.38
2023-01-30T22:16:29.305Z,1.23
2023-01-30T22:18:56.934Z,1.06
2023-01-30T22:21:26.429Z,1.24
2023-01-30T22:23:54.768Z,1.29
2023-01-30T22:26:23.647Z,1.32
2023-01-30T22:28:58.251Z,1.22
2023-01-30T22:31:26.698Z,1.02
2023-01-30T22:33:55.668Z,0.99
2023-01-30T22:36:27.209Z,0.95
2023-01-30T22:38:54.334Z,1.06
2023-01-30T22:41:23.999Z,1.12
2023-01-30T22:43:56.273Z,1.05
2023-01-30T22:46:25.365Z,1.15
2023-01-30T22:48:52.660Z,1.22
2023-01-30T22:51:24.480Z,1.11
2023-01-30T22:53:53.363Z,1.10
2023-01-30T22:56:22.960Z,1.13
2023-01-30T22:58:50.567Z,1.16
2023-01-30T23:01:28.324Z,1.24
2023-01-30T23:03:57.755Z,1.11
2023-01-30T23:06:25.218Z,0.95
2023-01-30T23:08:54.054Z,1.03
2023-01-30T23:11:24.404Z,0.95
2023-01-30T23:13:53.686Z,1.00
2023-01-30T23:16:22.464Z,1.11
2023-01-30T23:18:55.903Z,1.16
2023-01-30T23:21:31.772Z,1.20
2023-01-30T23:24:00.603Z,1.13
2023-01-30T23:26:30.772Z,1.03
2023-01-30T23:28:58.002Z,1.16
2023-01-30T23:31:26.665Z,1.30
2023-01-30T23:33:58.560Z,1.37
2023-01-30T23:36:25.733Z,1.45
2023-01-30T23:38:53.910Z,1.38
2023-01-30T23:41:25.200Z,1.34
2023-01-30T23:43:52.262Z,1.45
2023-01-30T23:46:27.829Z,1.51
2023-01-30T23:48:57.241Z,1.51
2023-01-30T23:51:25.728Z,1.43
2023-01-30T23:53:52.699Z,1.52
2023-01-30T23:56:20.633Z,1.54
2023-01-30T23:58:47.581Z,1.52
